Cambridge, MA (02139)

3:08 PM EDT on July 02, 2015 (GMT -0400)
Central Square | | Change Station
CLOSE
Current Station
Personal Weather Station
Location: Cambridge, MA
Elevation: 24 ft
Nearby Weather Stations

Elev 24 ft 42.36 °N, 71.11 °W | Updated 4 seconds ago

Partly Cloudy
Partly Cloudy
80.7 °F
Feels Like 81 °F
N
2.0
Wind Variable Wind from South
Gusts 9.0 mph

Today
High -- | Low -- °F
--% Chance of Precip.
Yesterday
High -- | Low -- °F
Precip. -- in
5:11 AM 8:24 PM
Full, 99% visible
Pressure 29.87 in
Visibility 10.0 miles
Clouds Scattered Clouds 6000 ft
Mostly Cloudy 25000 ft
Heat Index 81 °F
Dew Point 55 °F
Humidity 41%
Rainfall 0.00 in
Snow Depth Not available.
UV 3.3 out of 12
Pollen 5.90 out of 12
Air Quality Not available.
Flu Activity Not available.
METAR KBOS 021854Z 26008KT 10SM SCT060 BKN250 26/13 A2987 RMK AO2 SLP113 T02560133

More Conditions Fewer Conditions

Pressure 29.87 in
Visibility 10.0 miles
Clouds Scattered Clouds 6000 ft
Mostly Cloudy 25000 ft
Heat Index 81 °F
Dew Point 55 °F
Humidity 41%
Rainfall 0.00 in
Snow Depth Not available.
UV 3.3 out of 12
Pollen 5.90 out of 12
Air Quality Not available.
Flu Activity Not available.
METAR KBOS 021854Z 26008KT 10SM SCT060 BKN250 26/13 A2987 RMK AO2 SLP113 T02560133

More Conditions Fewer Conditions

10-Day Weather Forecast

×

Almanac

Astronomy

Jul. 02, 2015 Rise Set
Actual Time
Civil Twilight
Nautical Twilight
Astronomical Twilight
Moon
Length of Visible Light
Length of Day
Tomorrow will be .
, % of the Moon is Illuminated

Today's Extremes

State Highs State Lows

Community

WunderPhotos

Upload Photos

1,834,517 photos uploaded!

WunderBlogs® & News

Nearby

Air Quality

  Air Quality AQ Index Pollutant
Not available.

Snow Depth

Station Depth Elevation

Earthquake Activity

City Distance Mag. Time & Date
Minimum magnitude displayed is 2.5.

Coastal Water Temperatures

Place Temperature

Stations

Nearby Weather Stations

Station Location Temp. Windchill Dew Point Humidity Wind Precip. Elev Updated Type